Time;durP1;ratioP1;P1;durP2;ratioP2;P2;SDS_P1;SDS_P2;PMS_P1;PMS_P2;Temp;Humidity;BMP_temperature;BMP_pressure;BME280_temperature;BME280_humidity;BME280_pressure;Samples;Min_cycle;Max_cycle;Signal;HPM_P1;HPM_P2
2023/06/27 00:00:47;;;;;;;12.37;8.60;;;;;;;;;;742027;186;919371;-65
2023/06/27 00:03:13;;;;;;;14.20;7.93;;;;;;;;;;742983;186;919100;-65
2023/06/27 00:05:39;;;;;;;13.50;8.80;;;;;;;;;;750371;185;919258;-64
2023/06/27 00:08:06;;;;;;;12.97;8.50;;;;;;;;;;764774;181;918986;-63
2023/06/27 00:10:30;;;;;;;10.97;7.40;;;;;;;;;;768853;181;919180;-65
2023/06/27 00:12:56;;;;;;;11.40;7.67;;;;;;;;;;774908;181;917551;-64
2023/06/27 00:15:22;;;;;;;16.47;9.50;;;;;;;;;;763512;181;919253;-65
2023/06/27 00:17:48;;;;;;;11.80;7.33;;;;;;;;;;767029;178;919293;-63
2023/06/27 00:20:14;;;;;;;15.30;8.07;;;;;;;;;;777439;180;916855;-63
2023/06/27 00:22:40;;;;;;;10.67;6.97;;;;;;;;;;769720;181;916378;-64
2023/06/27 00:25:06;;;;;;;11.70;7.60;;;;;;;;;;769378;177;919272;-66
2023/06/27 00:27:32;;;;;;;12.70;7.90;;;;;;;;;;774445;180;919362;-63
2023/06/27 00:29:58;;;;;;;15.07;9.30;;;;;;;;;;761965;182;931973;-65
2023/06/27 00:32:23;;;;;;;11.10;7.43;;;;;;;;;;763662;181;920613;-64
2023/06/27 00:34:49;;;;;;;10.13;8.00;;;;;;;;;;769132;181;818717;-64
2023/06/27 00:37:16;;;;;;;12.00;7.83;;;;;;;;;;770072;181;817993;-62
2023/06/27 00:39:41;;;;;;;11.67;8.63;;;;;;;;;;767979;181;919418;-62
2023/06/27 00:42:07;;;;;;;10.93;8.50;;;;;;;;;;768189;181;916662;-62
2023/06/27 00:44:33;;;;;;;9.67;8.03;;;;;;;;;;773247;181;715273;-63
2023/06/27 00:46:59;;;;;;;10.47;8.07;;;;;;;;;;767921;182;817075;-68
2023/06/27 00:49:24;;;;;;;12.27;8.90;;;;;;;;;;765915;181;916591;-69
2023/06/27 00:51:50;;;;;;;18.10;10.03;;;;;;;;;;770200;177;807549;-67
2023/06/27 00:54:16;;;;;;;15.13;10.20;;;;;;;;;;768971;181;817164;-68
2023/06/27 00:56:42;;;;;;;14.43;8.37;;;;;;;;;;768987;182;918960;-67
2023/06/27 00:59:08;;;;;;;14.30;8.63;;;;;;;;;;764557;182;919393;-65
2023/06/27 01:01:34;;;;;;;12.73;9.50;;;;;;;;;;774121;176;915685;-66
2023/06/27 01:03:59;;;;;;;15.17;9.07;;;;;;;;;;771528;179;921414;-65
2023/06/27 01:06:30;;;;;;;12.47;7.70;;;;;;;;;;762830;181;921231;-66
2023/06/27 01:08:57;;;;;;;13.90;9.10;;;;;;;;;;769476;180;919490;-66
2023/06/27 01:11:23;;;;;;;11.60;8.33;;;;;;;;;;767924;182;919691;-65
2023/06/27 01:13:49;;;;;;;12.97;9.27;;;;;;;;;;771054;181;919002;-62
2023/06/27 01:16:14;;;;;;;11.17;8.40;;;;;;;;;;764840;181;920365;-63
2023/06/27 01:18:41;;;;;;;12.50;9.40;;;;;;;;;;764575;180;920666;-63
2023/06/27 01:21:08;;;;;;;15.90;9.35;;;;;;;;;;774110;181;919172;-63
2023/06/27 01:23:34;;;;;;;15.63;9.47;;;;;;;;;;769715;179;920615;-65
2023/06/27 01:26:01;;;;;;;15.93;10.10;;;;;;;;;;771295;180;919769;-64
2023/06/27 01:28:26;;;;;;;13.30;9.30;;;;;;;;;;772532;180;944391;-64
2023/06/27 01:30:52;;;;;;;14.03;9.30;;;;;;;;;;762090;182;917536;-64
2023/06/27 01:33:18;;;;;;;13.97;9.77;;;;;;;;;;774840;180;920655;-64
2023/06/27 01:35:46;;;;;;;13.70;9.90;;;;;;;;;;768759;181;919104;-64
2023/06/27 01:38:12;;;;;;;13.70;9.53;;;;;;;;;;768207;181;919338;-64
2023/06/27 01:40:38;;;;;;;20.23;10.13;;;;;;;;;;768316;181;918932;-64
2023/06/27 01:43:04;;;;;;;16.60;10.67;;;;;;;;;;772604;180;818304;-65
2023/06/27 01:45:29;;;;;;;12.10;9.30;;;;;;;;;;768805;180;918976;-64
2023/06/27 01:47:55;;;;;;;18.10;9.00;;;;;;;;;;762068;181;919851;-64
2023/06/27 01:50:21;;;;;;;12.17;10.00;;;;;;;;;;768089;177;911617;-64
2023/06/27 01:52:47;;;;;;;12.63;9.50;;;;;;;;;;770391;179;921917;-64
2023/06/27 01:55:13;;;;;;;10.90;8.07;;;;;;;;;;765335;182;821154;-64
2023/06/27 01:57:39;;;;;;;12.80;8.73;;;;;;;;;;771397;181;814995;-65
2023/06/27 02:00:06;;;;;;;13.23;9.10;;;;;;;;;;765935;182;920415;-64
2023/06/27 02:02:31;;;;;;;13.90;10.00;;;;;;;;;;774710;180;915960;-64
2023/06/27 02:04:57;;;;;;;13.30;8.40;;;;;;;;;;767783;180;924807;-65
2023/06/27 02:07:23;;;;;;;14.83;10.03;;;;;;;;;;772568;180;894964;-63
2023/06/27 02:09:49;;;;;;;17.20;9.70;;;;;;;;;;772481;181;919324;-66
2023/06/27 02:12:15;;;;;;;17.13;9.53;;;;;;;;;;762254;182;921288;-66
2023/06/27 02:14:40;;;;;;;13.70;10.67;;;;;;;;;;776955;178;914038;-65
2023/06/27 02:17:06;;;;;;;14.40;8.80;;;;;;;;;;771790;178;919015;-65
2023/06/27 02:19:32;;;;;;;13.95;9.30;;;;;;;;;;770164;182;922117;-63
2023/06/27 02:21:58;;;;;;;14.07;9.97;;;;;;;;;;771220;181;919377;-62
2023/06/27 02:24:24;;;;;;;15.63;9.90;;;;;;;;;;762350;182;817854;-63
2023/06/27 02:26:50;;;;;;;15.95;11.43;;;;;;;;;;763770;182;919065;-66
2023/06/27 02:29:16;;;;;;;16.87;10.33;;;;;;;;;;772865;181;918226;-65
2023/06/27 02:31:41;;;;;;;16.10;8.80;;;;;;;;;;765758;178;919597;-61
2023/06/27 02:34:07;;;;;;;14.43;9.10;;;;;;;;;;769007;181;918510;-62
2023/06/27 02:36:33;;;;;;;12.90;9.57;;;;;;;;;;768853;181;918553;-62
2023/06/27 02:38:59;;;;;;;16.47;9.00;;;;;;;;;;770022;182;919201;-62
2023/06/27 02:41:25;;;;;;;12.73;9.10;;;;;;;;;;766866;179;916655;-65
2023/06/27 02:43:51;;;;;;;12.70;9.40;;;;;;;;;;763779;181;919887;-62
2023/06/27 02:46:16;;;;;;;13.30;8.48;;;;;;;;;;774811;181;917506;-62
2023/06/27 02:48:42;;;;;;;12.30;9.27;;;;;;;;;;768018;179;815586;-63
2023/06/27 02:51:08;;;;;;;14.43;9.47;;;;;;;;;;768942;181;917867;-65
2023/06/27 02:53:34;;;;;;;12.73;10.03;;;;;;;;;;776443;181;919978;-65
2023/06/27 02:56:02;;;;;;;12.90;8.37;;;;;;;;;;764773;181;922260;-65
2023/06/27 02:58:26;;;;;;;14.65;9.57;;;;;;;;;;767137;181;918197;-63
2023/06/27 03:00:52;;;;;;;14.20;8.60;;;;;;;;;;762868;182;918711;-66
2023/06/27 03:03:18;;;;;;;14.30;9.38;;;;;;;;;;774156;179;918376;-62
2023/06/27 03:05:44;;;;;;;12.00;8.37;;;;;;;;;;765989;181;919276;-62
2023/06/27 03:08:10;;;;;;;12.90;7.70;;;;;;;;;;770941;182;816981;-61
2023/06/27 03:10:36;;;;;;;14.07;9.03;;;;;;;;;;767293;182;920517;-62
2023/06/27 03:13:02;;;;;;;17.47;9.00;;;;;;;;;;769556;182;919375;-62
2023/06/27 03:15:27;;;;;;;11.27;8.60;;;;;;;;;;769247;182;917088;-66
2023/06/27 03:17:53;;;;;;;13.83;9.83;;;;;;;;;;772888;181;810415;-65
2023/06/27 03:20:20;;;;;;;12.63;10.53;;;;;;;;;;762245;180;937354;-65
2023/06/27 03:22:45;;;;;;;12.23;8.73;;;;;;;;;;761620;182;916709;-63
2023/06/27 03:25:11;;;;;;;14.48;9.20;;;;;;;;;;763733;180;1021105;-66
2023/06/27 03:27:37;;;;;;;11.77;8.93;;;;;;;;;;760864;182;919899;-65
2023/06/27 03:30:03;;;;;;;15.77;8.80;;;;;;;;;;741711;186;919646;-66
2023/06/27 03:32:29;;;;;;;12.35;8.93;;;;;;;;;;745290;186;919306;-63
2023/06/27 03:34:55;;;;;;;11.93;8.70;;;;;;;;;;750816;185;920314;-66
2023/06/27 03:37:20;;;;;;;12.10;9.07;;;;;;;;;;747564;185;931643;-62
2023/06/27 03:39:46;;;;;;;12.18;8.60;;;;;;;;;;763666;182;822805;-66
2023/06/27 03:42:12;;;;;;;22.13;9.10;;;;;;;;;;773218;181;919166;-66
2023/06/27 03:44:38;;;;;;;12.57;8.13;;;;;;;;;;764738;181;921905;-66
2023/06/27 03:47:04;;;;;;;18.90;8.77;;;;;;;;;;768506;181;910227;-66
2023/06/27 03:49:30;;;;;;;15.67;10.00;;;;;;;;;;771263;181;913836;-62
2023/06/27 03:51:56;;;;;;;14.87;8.70;;;;;;;;;;772219;180;918367;-62
2023/06/27 03:54:22;;;;;;;12.60;8.70;;;;;;;;;;765400;180;918353;-66
2023/06/27 03:56:48;;;;;;;14.70;8.40;;;;;;;;;;764389;181;919356;-66
2023/06/27 03:59:14;;;;;;;11.17;8.57;;;;;;;;;;772802;178;918948;-62
2023/06/27 04:01:41;;;;;;;15.27;9.73;;;;;;;;;;769139;181;919644;-62
2023/06/27 04:04:05;;;;;;;12.97;9.07;;;;;;;;;;767842;182;920234;-62
2023/06/27 04:06:31;;;;;;;16.23;10.67;;;;;;;;;;774383;182;918966;-66
2023/06/27 04:08:57;;;;;;;16.83;9.00;;;;;;;;;;769167;180;916261;-62
2023/06/27 04:11:23;;;;;;;13.47;10.07;;;;;;;;;;764751;180;910177;-62
2023/06/27 04:13:49;;;;;;;17.80;9.53;;;;;;;;;;772776;181;919169;-66
2023/06/27 04:16:14;;;;;;;14.00;10.23;;;;;;;;;;759916;182;919634;-63
2023/06/27 04:18:40;;;;;;;14.60;10.23;;;;;;;;;;764914;180;918674;-67
2023/06/27 04:21:06;;;;;;;14.00;10.30;;;;;;;;;;772858;180;918932;-62
2023/06/27 04:23:32;;;;;;;22.13;9.63;;;;;;;;;;755193;185;920353;-67
2023/06/27 04:26:02;;;;;;;17.27;10.00;;;;;;;;;;772599;179;919408;-62
2023/06/27 04:28:25;;;;;;;13.50;9.43;;;;;;;;;;768543;180;919088;-67
2023/06/27 04:30:51;;;;;;;21.43;9.50;;;;;;;;;;765217;182;881530;-62
2023/06/27 04:33:17;;;;;;;13.73;10.57;;;;;;;;;;767732;181;921327;-62
2023/06/27 04:35:43;;;;;;;15.87;11.50;;;;;;;;;;759522;182;818346;-66
2023/06/27 04:38:09;;;;;;;16.73;10.10;;;;;;;;;;773396;182;917719;-62
2023/06/27 04:40:35;;;;;;;16.53;10.43;;;;;;;;;;760605;182;918633;-66
2023/06/27 04:43:00;;;;;;;18.60;9.73;;;;;;;;;;761082;181;917840;-63
2023/06/27 04:45:26;;;;;;;18.30;10.90;;;;;;;;;;762313;181;840491;-66
2023/06/27 04:47:52;;;;;;;19.93;11.10;;;;;;;;;;760306;179;904866;-63
2023/06/27 04:50:19;;;;;;;20.17;10.17;;;;;;;;;;752783;183;940656;-63
2023/06/27 04:52:44;;;;;;;20.33;11.90;;;;;;;;;;749151;184;917147;-63
2023/06/27 04:55:10;;;;;;;18.73;10.17;;;;;;;;;;766586;182;918407;-63
2023/06/27 04:57:35;;;;;;;17.93;9.47;;;;;;;;;;765703;181;813320;-63
2023/06/27 05:00:01;;;;;;;17.00;9.53;;;;;;;;;;761630;181;919745;-66
2023/06/27 05:02:27;;;;;;;12.23;9.27;;;;;;;;;;769566;181;920764;-66
2023/06/27 05:04:53;;;;;;;18.23;9.70;;;;;;;;;;766579;181;921754;-66
2023/06/27 05:07:19;;;;;;;19.73;10.30;;;;;;;;;;761430;178;921178;-66
2023/06/27 05:09:45;;;;;;;18.57;9.97;;;;;;;;;;779473;180;916497;-63
2023/06/27 05:12:11;;;;;;;14.23;10.30;;;;;;;;;;769234;181;841343;-65
2023/06/27 05:14:36;;;;;;;19.03;9.40;;;;;;;;;;770162;178;917139;-64
2023/06/27 05:17:02;;;;;;;25.10;10.93;;;;;;;;;;767288;181;920809;-66
2023/06/27 05:19:29;;;;;;;13.43;8.80;;;;;;;;;;758610;182;892821;-63
2023/06/27 05:21:54;;;;;;;13.90;9.60;;;;;;;;;;766755;178;914511;-64
2023/06/27 05:24:20;;;;;;;12.37;9.40;;;;;;;;;;765183;181;920838;-66
2023/06/27 05:26:46;;;;;;;14.67;8.70;;;;;;;;;;772561;180;915800;-67
2023/06/27 05:29:12;;;;;;;11.83;8.83;;;;;;;;;;762372;182;870067;-66
2023/06/27 05:31:37;;;;;;;9.90;7.20;;;;;;;;;;772228;181;920556;-66
2023/06/27 05:34:03;;;;;;;11.50;9.13;;;;;;;;;;772440;182;919483;-63
2023/06/27 05:36:29;;;;;;;14.90;7.73;;;;;;;;;;761970;180;922190;-63
2023/06/27 05:38:55;;;;;;;9.90;7.33;;;;;;;;;;769059;181;920091;-66
2023/06/27 05:41:21;;;;;;;9.90;7.33;;;;;;;;;;775233;178;918730;-66
2023/06/27 05:43:47;;;;;;;9.50;6.13;;;;;;;;;;768263;181;927306;-65
2023/06/27 05:46:12;;;;;;;8.67;6.43;;;;;;;;;;765372;182;918696;-62
2023/06/27 05:48:39;;;;;;;9.97;6.60;;;;;;;;;;764751;182;902483;-62
2023/06/27 05:51:04;;;;;;;11.20;7.00;;;;;;;;;;770480;181;919477;-66
2023/06/27 05:53:30;;;;;;;9.70;7.57;;;;;;;;;;761756;180;925552;-66
2023/06/27 05:55:56;;;;;;;19.40;6.87;;;;;;;;;;762839;182;919178;-63
2023/06/27 05:58:22;;;;;;;8.60;5.93;;;;;;;;;;771662;179;920758;-66
2023/06/27 06:00:48;;;;;;;9.73;6.00;;;;;;;;;;768805;181;918319;-62
2023/06/27 06:03:13;;;;;;;7.63;5.07;;;;;;;;;;768916;181;918891;-63
2023/06/27 06:05:39;;;;;;;9.17;5.50;;;;;;;;;;770042;181;917993;-67
2023/06/27 06:08:05;;;;;;;9.07;5.90;;;;;;;;;;773663;180;813408;-63
2023/06/27 06:10:31;;;;;;;8.30;5.00;;;;;;;;;;774222;180;815768;-66
2023/06/27 06:12:57;;;;;;;10.23;5.30;;;;;;;;;;772893;180;918078;-66
2023/06/27 06:15:23;;;;;;;8.33;5.60;;;;;;;;;;772187;181;812833;-67
2023/06/27 06:17:49;;;;;;;7.57;5.80;;;;;;;;;;763973;181;820501;-67
2023/06/27 06:20:14;;;;;;;11.02;6.05;;;;;;;;;;768856;181;923927;-66
2023/06/27 06:22:40;;;;;;;7.73;5.50;;;;;;;;;;768466;180;916694;-67
2023/06/27 06:25:07;;;;;;;7.57;4.50;;;;;;;;;;769385;178;973724;-66
2023/06/27 06:27:32;;;;;;;10.13;4.63;;;;;;;;;;760677;180;855463;-63
2023/06/27 06:29:58;;;;;;;6.10;4.37;;;;;;;;;;752692;184;914724;-63
2023/06/27 06:32:24;;;;;;;9.20;6.00;;;;;;;;;;765462;182;920950;-63
2023/06/27 06:34:50;;;;;;;13.57;5.23;;;;;;;;;;769018;181;918966;-63
2023/06/27 06:37:16;;;;;;;8.60;5.10;;;;;;;;;;774668;180;816842;-66
2023/06/27 06:39:42;;;;;;;8.50;5.00;;;;;;;;;;762899;180;920839;-66
2023/06/27 06:42:08;;;;;;;7.17;5.03;;;;;;;;;;772549;178;838109;-65
2023/06/27 06:44:33;;;;;;;7.07;5.03;;;;;;;;;;767141;181;916707;-66
2023/06/27 06:46:59;;;;;;;8.17;4.90;;;;;;;;;;775540;180;818270;-67
2023/06/27 06:49:25;;;;;;;9.57;5.03;;;;;;;;;;762293;181;922338;-65
2023/06/27 06:51:51;;;;;;;7.53;4.93;;;;;;;;;;767101;181;918710;-65
2023/06/27 06:54:17;;;;;;;10.03;5.77;;;;;;;;;;772948;181;918589;-65
2023/06/27 06:56:43;;;;;;;10.07;4.60;;;;;;;;;;765986;182;920372;-65
2023/06/27 06:59:08;;;;;;;5.80;4.73;;;;;;;;;;767869;182;913837;-65
2023/06/27 07:01:34;;;;;;;7.07;4.67;;;;;;;;;;775634;182;710944;-66
2023/06/27 07:04:00;;;;;;;12.90;5.20;;;;;;;;;;766816;182;914122;-67
2023/06/27 07:06:26;;;;;;;6.73;4.03;;;;;;;;;;768017;181;919029;-67
2023/06/27 07:08:53;;;;;;;9.57;4.60;;;;;;;;;;766478;182;918472;-66
2023/06/27 07:11:18;;;;;;;5.83;4.23;;;;;;;;;;770268;182;961094;-67
2023/06/27 07:13:44;;;;;;;10.27;4.53;;;;;;;;;;750618;182;1021643;-66
2023/06/27 07:16:09;;;;;;;8.93;4.33;;;;;;;;;;764351;180;917922;-65
2023/06/27 07:18:35;;;;;;;6.93;4.57;;;;;;;;;;776607;177;725413;-67
2023/06/27 07:21:01;;;;;;;6.73;4.60;;;;;;;;;;770206;180;919092;-67
2023/06/27 07:23:27;;;;;;;8.20;4.60;;;;;;;;;;773113;180;822153;-67
2023/06/27 07:25:53;;;;;;;8.00;4.67;;;;;;;;;;769441;181;827262;-67
2023/06/27 07:28:20;;;;;;;7.90;4.90;;;;;;;;;;767054;181;936248;-67
2023/06/27 07:30:45;;;;;;;6.50;4.67;;;;;;;;;;765897;181;919009;-66
2023/06/27 07:33:10;;;;;;;7.40;3.67;;;;;;;;;;773684;181;919400;-67
2023/06/27 07:35:36;;;;;;;6.03;4.60;;;;;;;;;;762355;181;919877;-67
2023/06/27 07:38:02;;;;;;;5.60;4.53;;;;;;;;;;767253;181;919315;-66
2023/06/27 07:40:28;;;;;;;7.77;4.70;;;;;;;;;;768660;178;919483;-66
2023/06/27 07:43:04;;;;;;;9.77;5.10;;;;;;;;;;774037;181;912690;-65
2023/06/27 07:45:30;;;;;;;8.40;5.07;;;;;;;;;;773048;180;917852;-76
2023/06/27 07:47:56;;;;;;;11.50;5.53;;;;;;;;;;769865;180;911401;-76
2023/06/27 07:50:22;;;;;;;8.87;5.43;;;;;;;;;;755063;180;1021496;-65
2023/06/27 07:52:47;;;;;;;8.13;4.73;;;;;;;;;;723656;190;817402;-67
2023/06/27 07:55:13;;;;;;;7.53;5.73;;;;;;;;;;716228;194;918927;-66
2023/06/27 07:57:39;;;;;;;14.20;5.50;;;;;;;;;;715052;195;918909;-66
2023/06/27 08:00:06;;;;;;;6.00;4.33;;;;;;;;;;720022;194;929558;-66
2023/06/27 08:02:32;;;;;;;7.60;5.73;;;;;;;;;;717455;192;918035;-67
2023/06/27 08:04:58;;;;;;;8.20;5.50;;;;;;;;;;715905;192;917650;-67
2023/06/27 08:07:23;;;;;;;6.67;5.33;;;;;;;;;;722087;193;920594;-66
2023/06/27 08:09:49;;;;;;;8.47;4.47;;;;;;;;;;718912;193;919012;-66
2023/06/27 08:12:15;;;;;;;6.07;4.20;;;;;;;;;;719250;195;880972;-67
2023/06/27 08:14:45;;;;;;;7.77;5.20;;;;;;;;;;715722;193;917005;-67
2023/06/27 08:17:09;;;;;;;9.30;4.37;;;;;;;;;;718052;195;918670;-66
2023/06/27 08:19:35;;;;;;;7.70;5.00;;;;;;;;;;718362;194;918579;-66
2023/06/27 08:22:01;;;;;;;8.53;4.53;;;;;;;;;;715069;193;920727;-68
2023/06/27 08:24:27;;;;;;;9.70;4.30;;;;;;;;;;721829;194;918456;-65
2023/06/27 08:26:55;;;;;;;11.30;4.03;;;;;;;;;;717047;194;920255;-69
2023/06/27 08:29:19;;;;;;;9.53;4.53;;;;;;;;;;719856;191;924724;-67
2023/06/27 08:31:46;;;;;;;5.80;3.93;;;;;;;;;;723730;192;917473;-67
2023/06/27 08:34:10;;;;;;;6.33;4.60;;;;;;;;;;720284;193;811450;-67
2023/06/27 08:36:36;;;;;;;7.20;4.43;;;;;;;;;;718627;192;925925;-64
2023/06/27 08:39:02;;;;;;;7.70;4.13;;;;;;;;;;717338;191;915750;-68
2023/06/27 08:41:28;;;;;;;5.73;4.10;;;;;;;;;;717235;192;813955;-65
2023/06/27 08:43:54;;;;;;;4.73;3.40;;;;;;;;;;717678;193;917987;-69
2023/06/27 08:46:20;;;;;;;15.00;4.83;;;;;;;;;;717421;193;903489;-67
2023/06/27 08:48:45;;;;;;;4.93;3.47;;;;;;;;;;721498;193;911000;-68
2023/06/27 08:51:11;;;;;;;4.70;3.40;;;;;;;;;;715008;193;917832;-67
2023/06/27 08:53:39;;;;;;;6.20;3.43;;;;;;;;;;718177;191;914338;-68
2023/06/27 08:56:14;;;;;;;6.80;3.47;;;;;;;;;;723368;191;915692;-65
2023/06/27 08:58:46;;;;;;;5.70;3.00;;;;;;;;;;726830;192;845378;-69
2023/06/27 09:01:14;;;;;;;4.67;3.40;;;;;;;;;;720004;192;818658;-69
2023/06/27 09:03:40;;;;;;;4.63;3.27;;;;;;;;;;719782;193;916681;-67
2023/06/27 09:06:06;;;;;;;6.50;3.30;;;;;;;;;;720453;194;805265;-65
2023/06/27 09:08:32;;;;;;;6.47;2.40;;;;;;;;;;719812;194;634244;-67
2023/06/27 09:10:57;;;;;;;6.30;2.90;;;;;;;;;;720772;194;648334;-66
2023/06/27 09:13:23;;;;;;;9.77;3.30;;;;;;;;;;723096;193;636341;-67
2023/06/27 09:15:49;;;;;;;3.90;2.70;;;;;;;;;;722460;192;917901;-68
2023/06/27 09:18:15;;;;;;;5.77;2.83;;;;;;;;;;718414;195;920575;-68
2023/06/27 09:20:41;;;;;;;7.30;2.90;;;;;;;;;;718074;193;917399;-65
2023/06/27 09:23:07;;;;;;;8.97;3.07;;;;;;;;;;722646;193;918308;-65
2023/06/27 09:25:33;;;;;;;4.40;2.50;;;;;;;;;;714620;192;918843;-69
2023/06/27 09:27:59;;;;;;;6.50;3.43;;;;;;;;;;716116;195;926590;-67
2023/06/27 09:30:26;;;;;;;5.40;2.57;;;;;;;;;;719942;193;919283;-66
2023/06/27 09:32:53;;;;;;;5.20;2.90;;;;;;;;;;725254;193;909871;-69
2023/06/27 09:35:18;;;;;;;5.50;3.20;;;;;;;;;;718385;192;936656;-64
2023/06/27 09:37:44;;;;;;;8.50;3.23;;;;;;;;;;715416;193;918604;-65
2023/06/27 09:40:25;;;;;;;5.50;3.70;;;;;;;;;;725542;194;921355;-64
2023/06/27 09:42:50;;;;;;;7.13;3.40;;;;;;;;;;723589;194;918613;-66
2023/06/27 09:45:16;;;;;;;5.20;3.20;;;;;;;;;;718297;193;920947;-65
2023/06/27 09:47:42;;;;;;;5.83;3.47;;;;;;;;;;718468;193;920677;-66
2023/06/27 09:50:08;;;;;;;8.10;2.97;;;;;;;;;;722914;191;815145;-68
2023/06/27 09:52:34;;;;;;;6.70;4.23;;;;;;;;;;716694;193;915537;-65
2023/06/27 09:55:00;;;;;;;9.73;3.30;;;;;;;;;;719615;194;816989;-68
2023/06/27 09:57:26;;;;;;;5.33;3.30;;;;;;;;;;723102;193;916406;-67
2023/06/27 09:59:51;;;;;;;6.37;3.00;;;;;;;;;;718608;194;917784;-68
2023/06/27 10:02:17;;;;;;;4.70;3.57;;;;;;;;;;720047;194;944239;-67
2023/06/27 10:04:43;;;;;;;5.87;3.40;;;;;;;;;;714899;192;1024084;-65
2023/06/27 10:07:11;;;;;;;4.63;2.90;;;;;;;;;;722788;193;919165;-67
2023/06/27 10:09:36;;;;;;;5.07;3.60;;;;;;;;;;716367;192;919554;-67
2023/06/27 10:12:01;;;;;;;5.87;3.33;;;;;;;;;;717106;194;920766;-67
2023/06/27 10:14:27;;;;;;;4.57;3.03;;;;;;;;;;722048;194;819300;-66
2023/06/27 10:16:54;;;;;;;8.90;4.23;;;;;;;;;;718025;193;919815;-66
2023/06/27 10:19:19;;;;;;;6.77;3.60;;;;;;;;;;716857;192;844782;-69
2023/06/27 10:21:45;;;;;;;6.30;3.30;;;;;;;;;;720638;193;815416;-68
2023/06/27 10:24:11;;;;;;;6.50;3.80;;;;;;;;;;718848;193;915671;-65
2023/06/27 10:26:36;;;;;;;7.20;3.57;;;;;;;;;;716304;193;840906;-66
2023/06/27 10:29:03;;;;;;;5.10;3.10;;;;;;;;;;715449;194;916587;-64
2023/06/27 10:31:34;;;;;;;7.60;2.50;;;;;;;;;;711851;196;828988;-64
2023/06/27 10:34:00;;;;;;;5.50;3.20;;;;;;;;;;720923;192;919643;-65
2023/06/27 10:36:26;;;;;;;5.00;3.13;;;;;;;;;;717532;192;919169;-66
2023/06/27 10:38:53;;;;;;;6.10;3.53;;;;;;;;;;720836;194;917375;-66
2023/06/27 10:41:22;;;;;;;4.20;2.60;;;;;;;;;;717772;192;815916;-66
2023/06/27 10:43:48;;;;;;;5.90;3.30;;;;;;;;;;716857;193;938990;-66
2023/06/27 10:46:17;;;;;;;7.97;3.43;;;;;;;;;;715779;193;917639;-66
2023/06/27 10:48:47;;;;;;;5.23;3.10;;;;;;;;;;722819;192;918385;-65
2023/06/27 10:51:11;;;;;;;8.07;3.40;;;;;;;;;;720712;190;916580;-64
2023/06/27 10:53:37;;;;;;;4.10;3.20;;;;;;;;;;722004;194;816827;-66
2023/06/27 10:56:03;;;;;;;6.63;3.30;;;;;;;;;;724119;192;806363;-64
2023/06/27 10:58:29;;;;;;;7.93;3.90;;;;;;;;;;720372;192;907504;-65
2023/06/27 11:00:55;;;;;;;6.13;3.40;;;;;;;;;;719439;195;812931;-64
2023/06/27 11:03:22;;;;;;;4.17;2.73;;;;;;;;;;711074;194;913867;-65
2023/06/27 11:05:49;;;;;;;4.73;3.23;;;;;;;;;;721720;193;917128;-64
2023/06/27 11:08:13;;;;;;;7.50;3.47;;;;;;;;;;723325;194;718039;-65
2023/06/27 11:10:39;;;;;;;4.30;3.10;;;;;;;;;;718043;191;820568;-65
2023/06/27 11:13:11;;;;;;;6.43;3.73;;;;;;;;;;715895;194;919206;-67
2023/06/27 11:15:37;;;;;;;6.33;3.20;;;;;;;;;;718612;193;928592;-66
2023/06/27 11:18:03;;;;;;;7.60;3.30;;;;;;;;;;718617;194;918950;-66
2023/06/27 11:20:29;;;;;;;8.10;2.97;;;;;;;;;;720622;193;921022;-66
2023/06/27 11:22:54;;;;;;;3.97;2.50;;;;;;;;;;722052;193;926893;-66
2023/06/27 11:25:20;;;;;;;8.30;2.90;;;;;;;;;;719047;194;818006;-66
2023/06/27 11:27:46;;;;;;;6.83;2.70;;;;;;;;;;717788;193;919007;-65
2023/06/27 11:30:12;;;;;;;4.13;2.50;;;;;;;;;;720698;191;919743;-64
2023/06/27 11:32:38;;;;;;;5.60;2.53;;;;;;;;;;716086;193;918662;-65
2023/06/27 11:35:05;;;;;;;4.70;3.10;;;;;;;;;;716471;195;816932;-65
2023/06/27 11:37:31;;;;;;;6.00;3.27;;;;;;;;;;721951;195;817428;-66
2023/06/27 11:40:07;;;;;;;4.03;3.03;;;;;;;;;;718519;192;912478;-66
2023/06/27 11:42:38;;;;;;;6.17;2.63;;;;;;;;;;719927;194;918297;-66
2023/06/27 11:45:04;;;;;;;5.37;2.93;;;;;;;;;;709432;193;710823;-66
2023/06/27 11:47:30;;;;;;;9.50;3.53;;;;;;;;;;715123;195;919313;-65
2023/06/27 11:50:12;;;;;;;8.23;2.47;;;;;;;;;;721661;193;919092;-66
2023/06/27 11:52:38;;;;;;;4.23;2.27;;;;;;;;;;722840;195;917026;-67
2023/06/27 11:55:05;;;;;;;7.47;2.43;;;;;;;;;;717643;192;845450;-67
2023/06/27 11:57:36;;;;;;;6.23;2.50;;;;;;;;;;716691;191;919583;-67
2023/06/27 12:00:03;;;;;;;4.07;2.30;;;;;;;;;;720629;191;920354;-67
2023/06/27 12:02:29;;;;;;;5.03;2.30;;;;;;;;;;718034;193;819626;-66
2023/06/27 12:04:56;;;;;;;3.70;2.60;;;;;;;;;;719035;192;918830;-66
2023/06/27 12:07:21;;;;;;;3.53;2.50;;;;;;;;;;719507;193;920377;-66
2023/06/27 12:09:47;;;;;;;7.37;2.87;;;;;;;;;;722708;194;918919;-68
2023/06/27 12:12:13;;;;;;;4.57;2.50;;;;;;;;;;716678;195;916744;-68
2023/06/27 12:14:39;;;;;;;6.87;2.90;;;;;;;;;;717556;194;920607;-66
2023/06/27 12:17:05;;;;;;;5.47;2.83;;;;;;;;;;722909;193;816795;-67
2023/06/27 12:19:31;;;;;;;6.33;2.53;;;;;;;;;;714576;194;918852;-66
2023/06/27 12:21:58;;;;;;;4.83;2.80;;;;;;;;;;719342;194;918928;-67
2023/06/27 12:24:22;;;;;;;6.60;2.60;;;;;;;;;;720685;193;883981;-67
2023/06/27 12:26:48;;;;;;;3.90;2.73;;;;;;;;;;719112;193;916109;-68
2023/06/27 12:29:14;;;;;;;10.60;3.17;;;;;;;;;;717075;193;919460;-67
2023/06/27 12:31:40;;;;;;;6.43;2.87;;;;;;;;;;716031;193;918491;-66
2023/06/27 12:34:06;;;;;;;6.27;3.73;;;;;;;;;;723173;192;920241;-64
2023/06/27 12:36:32;;;;;;;5.50;2.67;;;;;;;;;;715252;193;920189;-65
2023/06/27 12:38:58;;;;;;;4.03;1.90;;;;;;;;;;717249;193;816351;-64
2023/06/27 12:41:23;;;;;;;5.40;2.80;;;;;;;;;;722597;193;910722;-64
2023/06/27 12:43:49;;;;;;;8.57;2.63;;;;;;;;;;717930;193;918190;-63
2023/06/27 12:46:15;;;;;;;5.77;2.40;;;;;;;;;;717495;191;837077;-65
2023/06/27 12:48:41;;;;;;;7.30;2.37;;;;;;;;;;722987;195;813907;-65
2023/06/27 12:51:07;;;;;;;7.00;3.17;;;;;;;;;;719477;195;919614;-65
2023/06/27 12:53:32;;;;;;;6.10;2.97;;;;;;;;;;717119;195;917723;-65
2023/06/27 12:56:02;;;;;;;3.83;2.50;;;;;;;;;;721504;195;923913;-66
2023/06/27 12:58:25;;;;;;;4.90;2.70;;;;;;;;;;715636;195;918937;-65
2023/06/27 13:00:51;;;;;;;9.97;2.40;;;;;;;;;;714890;193;920582;-64
2023/06/27 13:03:17;;;;;;;5.83;2.97;;;;;;;;;;716893;193;935288;-66
2023/06/27 13:05:43;;;;;;;5.17;2.33;;;;;;;;;;717088;193;1045243;-64
2023/06/27 13:08:08;;;;;;;4.33;2.13;;;;;;;;;;715390;193;1010130;-65
2023/06/27 13:10:34;;;;;;;4.10;2.30;;;;;;;;;;716793;193;1020405;-64
2023/06/27 13:13:01;;;;;;;16.17;3.33;;;;;;;;;;723883;193;918706;-64
2023/06/27 13:15:26;;;;;;;4.27;2.40;;;;;;;;;;722910;191;836996;-64
2023/06/27 13:17:52;;;;;;;3.33;2.10;;;;;;;;;;720089;191;918418;-64
2023/06/27 13:20:20;;;;;;;5.30;2.13;;;;;;;;;;724159;192;889979;-63
2023/06/27 13:22:48;;;;;;;4.20;2.40;;;;;;;;;;718935;192;1017870;-65
2023/06/27 13:25:10;;;;;;;6.43;2.90;;;;;;;;;;718228;192;917647;-63
2023/06/27 13:27:36;;;;;;;4.80;1.90;;;;;;;;;;717811;192;919278;-64
2023/06/27 13:30:01;;;;;;;6.53;1.87;;;;;;;;;;714162;193;918543;-66
2023/06/27 13:32:31;;;;;;;3.80;1.83;;;;;;;;;;718632;193;920457;-65
2023/06/27 13:34:53;;;;;;;3.13;2.10;;;;;;;;;;716161;193;923057;-65
2023/06/27 13:37:19;;;;;;;6.80;2.10;;;;;;;;;;723781;193;817040;-65
2023/06/27 13:39:45;;;;;;;9.50;2.53;;;;;;;;;;717907;193;920483;-66
2023/06/27 13:42:10;;;;;;;3.67;1.80;;;;;;;;;;717048;193;918619;-65
2023/06/27 13:44:36;;;;;;;4.83;2.23;;;;;;;;;;722322;194;919116;-65
2023/06/27 13:47:02;;;;;;;6.70;1.73;;;;;;;;;;716603;193;919739;-65
2023/06/27 13:49:29;;;;;;;4.87;2.00;;;;;;;;;;719349;193;917568;-66
2023/06/27 13:51:54;;;;;;;5.20;2.60;;;;;;;;;;722765;192;917785;-65
2023/06/27 13:54:20;;;;;;;8.13;2.30;;;;;;;;;;718722;193;921763;-64
2023/06/27 13:56:45;;;;;;;6.70;2.60;;;;;;;;;;716193;193;918013;-64
2023/06/27 13:59:11;;;;;;;2.97;1.67;;;;;;;;;;715932;193;918556;-64
2023/06/27 14:01:37;;;;;;;8.17;2.47;;;;;;;;;;722497;195;919719;-62
2023/06/27 14:04:03;;;;;;;7.60;2.13;;;;;;;;;;720712;193;817758;-65
2023/06/27 14:06:29;;;;;;;5.30;2.10;;;;;;;;;;718393;195;919800;-66
2023/06/27 14:08:55;;;;;;;6.97;2.17;;;;;;;;;;722133;193;815433;-67
2023/06/27 14:11:20;;;;;;;5.17;2.03;;;;;;;;;;721001;191;921272;-66
2023/06/27 14:13:50;;;;;;;3.47;2.10;;;;;;;;;;717212;193;940039;-65
2023/06/27 14:16:12;;;;;;;4.63;2.10;;;;;;;;;;720850;194;919383;-64